Pleasantdale, New York
Current Conditions -  °F | °C
As of 9:51 AM on Thursday 30 Oct 2014 (Local Time) from KALB Reporting Station
Broken Clouds Broken Clouds  
Wind Chill: 50°   Ceiling: 5500
Heat Index: 50°   Visibility: 10mi
Dew Point: 39°   Wind: 12mph
Humidity: 66%   Direction: 280°W
Pressure: 30"   Gusts: NA
Location:  42.8029°N, 73.6379°W
Report Text: KALB 301351Z 28010KT 10SM FEW025 SCT033 BKN055 10/04 A3000 RMK AO2 SLP160 BKN V SCT T01000039
Loading
Personal Weather Stations






























Interactive Weather Map
Tropical Storm Tracking
New forecast layout! Learn more

10-Day Weather Forecast

Advertisements
Track Severe Weather on mobile